createdAt,value
2018-09-02T00:00:03.178Z,17.2777777778
2018-09-02T00:00:15.598Z,17.2777777778
2018-09-02T00:00:28.012Z,17.2777777778
2018-09-02T00:00:40.446Z,17.2777777778
2018-09-02T00:00:52.858Z,17.2777777778
2018-09-02T00:01:05.651Z,17.2777777778
2018-09-02T00:01:18.073Z,17.2777777778
2018-09-02T00:01:30.513Z,17.2777777778
2018-09-02T00:01:42.936Z,17.2777777778
2018-09-02T00:01:55.357Z,17.2777777778
2018-09-02T00:02:07.791Z,17.2777777778
2018-09-02T00:02:20.226Z,17.2777777778
2018-09-02T00:02:32.659Z,17.2777777778
2018-09-02T00:02:45.054Z,17.2222222222
2018-09-02T00:02:57.512Z,17.2777777778
2018-09-02T00:03:09.941Z,17.2777777778
2018-09-02T00:03:22.346Z,17.2777777778
2018-09-02T00:03:34.756Z,17.2777777778
2018-09-02T00:03:47.174Z,17.2777777778
2018-09-02T00:03:59.578Z,17.2777777778
2018-09-02T00:04:11.991Z,17.2777777778
2018-09-02T00:04:24.451Z,17.2222222222
2018-09-02T00:04:36.853Z,17.2222222222
2018-09-02T00:04:49.262Z,17.2777777778
2018-09-02T00:05:01.674Z,17.2222222222
2018-09-02T00:05:14.112Z,17.2222222222
2018-09-02T00:05:26.525Z,17.2222222222
2018-09-02T00:05:38.923Z,17.2222222222
2018-09-02T00:05:51.320Z,17.2222222222
2018-09-02T00:06:03.716Z,17.2222222222
2018-09-02T00:06:16.181Z,17.2222222222
2018-09-02T00:06:28.587Z,17.2222222222
2018-09-02T00:06:40.995Z,17.2222222222
2018-09-02T00:06:53.400Z,17.2222222222
2018-09-02T00:07:05.794Z,17.2222222222
2018-09-02T00:07:18.202Z,17.2222222222
2018-09-02T00:07:30.603Z,17.1666666667
2018-09-02T00:07:43.016Z,17.2222222222
2018-09-02T00:07:55.413Z,17.2222222222
2018-09-02T00:08:07.817Z,17.2222222222
2018-09-02T00:08:20.207Z,17.2222222222
2018-09-02T00:08:32.602Z,17.2222222222
2018-09-02T00:08:45.014Z,17.2222222222
2018-09-02T00:08:57.498Z,17.2222222222
2018-09-02T00:09:09.911Z,17.1666666667
2018-09-02T00:09:22.346Z,17.2222222222
2018-09-02T00:09:34.758Z,17.1666666667
2018-09-02T00:09:47.236Z,17.1666666667
2018-09-02T00:09:59.664Z,17.2222222222
2018-09-02T00:10:12.083Z,17.2222222222
2018-09-02T00:10:24.490Z,17.2222222222
2018-09-02T00:10:37.021Z,17.2222222222
2018-09-02T00:10:49.431Z,17.1666666667
2018-09-02T00:11:01.835Z,17.2222222222
2018-09-02T00:11:14.245Z,17.2222222222
2018-09-02T00:11:26.649Z,17.2222222222
2018-09-02T00:11:39.051Z,17.2222222222
2018-09-02T00:11:51.671Z,17.1666666667
2018-09-02T00:12:04.091Z,17.1666666667
2018-09-02T00:12:16.509Z,17.1666666667
2018-09-02T00:12:28.908Z,17.2222222222
2018-09-02T00:12:41.454Z,17.2222222222
2018-09-02T00:12:53.864Z,17.1666666667
2018-09-02T00:13:06.284Z,17.2222222222
2018-09-02T00:13:18.713Z,17.1666666667
2018-09-02T00:13:31.176Z,17.1666666667
2018-09-02T00:13:43.603Z,17.1666666667
2018-09-02T00:13:56.027Z,17.1666666667
2018-09-02T00:14:08.449Z,17.2222222222
2018-09-02T00:14:20.888Z,17.1666666667
2018-09-02T00:14:33.297Z,17.1666666667
2018-09-02T00:14:45.697Z,17.1666666667
2018-09-02T00:14:58.109Z,17.1666666667
2018-09-02T00:15:10.521Z,17.1666666667
2018-09-02T00:15:22.961Z,17.1666666667
2018-09-02T00:15:35.357Z,17.1666666667
2018-09-02T00:15:47.753Z,17.1666666667
2018-09-02T00:16:00.162Z,17.1666666667
2018-09-02T00:16:12.555Z,17.1666666667
2018-09-02T00:16:24.946Z,17.1666666667
2018-09-02T00:16:37.349Z,17.1666666667
2018-09-02T00:16:49.820Z,17.1111111111
2018-09-02T00:17:02.235Z,17.1111111111
2018-09-02T00:17:14.647Z,17.1666666667
2018-09-02T00:17:27.061Z,17.1111111111
2018-09-02T00:17:39.472Z,17.1111111111
2018-09-02T00:17:51.870Z,17.1111111111
2018-09-02T00:18:04.293Z,17.1111111111
2018-09-02T00:18:16.685Z,17.1111111111
2018-09-02T00:18:29.107Z,17.1111111111
2018-09-02T00:18:41.505Z,17.1111111111
2018-09-02T00:18:53.912Z,17.0555555556
2018-09-02T00:19:06.306Z,17.0555555556
2018-09-02T00:19:18.720Z,17.0555555556
2018-09-02T00:19:31.123Z,17.1111111111
2018-09-02T00:19:43.693Z,17.0555555556
2018-09-02T00:19:56.108Z,17.0555555556
2018-09-02T00:20:08.523Z,17.0555555556
2018-09-02T00:20:21.023Z,17.0555555556
2018-09-02T00:20:34.202Z,17.0555555556
2018-09-02T00:20:47.611Z,17.0555555556
2018-09-02T00:21:00.036Z,17.0555555556
2018-09-02T00:21:12.450Z,17.0555555556
2018-09-02T00:21:24.877Z,17.0555555556
2018-09-02T00:21:37.280Z,17.0555555556
2018-09-02T00:21:49.682Z,17.0555555556
2018-09-02T00:22:02.085Z,17.0555555556
2018-09-02T00:22:14.469Z,17.0555555556
2018-09-02T00:22:26.870Z,17.0555555556
2018-09-02T00:22:39.278Z,17.0555555556
2018-09-02T00:22:51.869Z,17.0555555556
2018-09-02T00:23:04.446Z,17
2018-09-02T00:23:16.840Z,17.0555555556
2018-09-02T00:23:29.417Z,17.0555555556
2018-09-02T00:23:42.051Z,17.0555555556
2018-09-02T00:23:54.472Z,17.0555555556
2018-09-02T00:24:06.869Z,17
2018-09-02T00:24:19.278Z,17.0555555556
2018-09-02T00:24:31.684Z,17
2018-09-02T00:24:44.100Z,17
2018-09-02T00:24:56.523Z,17
2018-09-02T00:25:08.941Z,17
2018-09-02T00:25:21.348Z,17
2018-09-02T00:25:34.079Z,17
2018-09-02T00:25:46.485Z,17
2018-09-02T00:25:58.933Z,17
2018-09-02T00:26:11.395Z,17
2018-09-02T00:26:23.786Z,17
2018-09-02T00:26:36.202Z,17
2018-09-02T00:26:48.619Z,17
2018-09-02T00:27:01.028Z,17
2018-09-02T00:27:13.450Z,17
2018-09-02T00:27:25.862Z,17
2018-09-02T00:27:38.275Z,16.9444444444
2018-09-02T00:27:50.688Z,16.9444444444
2018-09-02T00:28:03.101Z,16.9444444444
2018-09-02T00:28:15.497Z,17
2018-09-02T00:28:27.908Z,17
2018-09-02T00:28:40.323Z,17
2018-09-02T00:28:52.773Z,17
2018-09-02T00:29:05.189Z,17
2018-09-02T00:29:17.593Z,17
2018-09-02T00:29:30.003Z,17
2018-09-02T00:29:42.415Z,17
2018-09-02T00:29:54.826Z,16.9444444444
2018-09-02T00:30:07.223Z,17
2018-09-02T00:30:19.753Z,17
2018-09-02T00:30:32.534Z,17
2018-09-02T00:30:44.939Z,17
2018-09-02T00:30:57.353Z,17
2018-09-02T00:31:09.804Z,16.9444444444
2018-09-02T00:31:22.220Z,17
2018-09-02T00:31:34.633Z,16.9444444444
2018-09-02T00:31:47.202Z,16.9444444444
2018-09-02T00:31:59.778Z,17
2018-09-02T00:32:12.183Z,16.9444444444
2018-09-02T00:32:24.597Z,16.9444444444
2018-09-02T00:32:36.997Z,16.9444444444
2018-09-02T00:32:49.426Z,16.9444444444
2018-09-02T00:33:02.570Z,16.9444444444
2018-09-02T00:33:16.048Z,16.9444444444
2018-09-02T00:33:29.494Z,16.9444444444
2018-09-02T00:33:42.111Z,16.9444444444
2018-09-02T00:33:56.038Z,16.9444444444
2018-09-02T00:34:09.437Z,16.9444444444
2018-09-02T00:34:21.863Z,16.9444444444
2018-09-02T00:34:34.276Z,16.9444444444
2018-09-02T00:34:46.678Z,16.9444444444
2018-09-02T00:34:59.132Z,16.9444444444
2018-09-02T00:35:11.744Z,16.9444444444
2018-09-02T00:35:24.206Z,16.9444444444
2018-09-02T00:35:36.615Z,16.9444444444
2018-09-02T00:35:49.040Z,16.9444444444
2018-09-02T00:36:01.458Z,16.9444444444
2018-09-02T00:36:14.023Z,16.9444444444
2018-09-02T00:36:26.482Z,16.8888888889
2018-09-02T00:36:38.947Z,16.8888888889
2018-09-02T00:36:51.520Z,16.8888888889
2018-09-02T00:37:03.927Z,16.8888888889
2018-09-02T00:37:16.352Z,16.8888888889
2018-09-02T00:37:28.783Z,16.8888888889
2018-09-02T00:37:41.224Z,16.8888888889
2018-09-02T00:37:53.623Z,16.8888888889
2018-09-02T00:38:06.047Z,16.8888888889
2018-09-02T00:38:18.459Z,16.8888888889
2018-09-02T00:38:30.885Z,16.8888888889
2018-09-02T00:38:43.288Z,16.8888888889
2018-09-02T00:38:55.704Z,16.8888888889
2018-09-02T00:39:08.140Z,16.8888888889
2018-09-02T00:39:20.552Z,16.8888888889
2018-09-02T00:39:32.962Z,16.8888888889
2018-09-02T00:39:45.357Z,16.8888888889
2018-09-02T00:39:57.760Z,16.8888888889
2018-09-02T00:40:10.247Z,16.8888888889
2018-09-02T00:40:22.653Z,16.8888888889
2018-09-02T00:40:35.093Z,16.8888888889
2018-09-02T00:40:47.529Z,16.8888888889
2018-09-02T00:40:59.932Z,16.8888888889
2018-09-02T00:41:12.340Z,16.8888888889
2018-09-02T00:41:25.257Z,16.8888888889
2018-09-02T00:41:37.652Z,16.8888888889
2018-09-02T00:41:50.050Z,16.8333333333
2018-09-02T00:42:02.525Z,16.8888888889
2018-09-02T00:42:15.240Z,16.8333333333
2018-09-02T00:42:27.668Z,16.8888888889
2018-09-02T00:42:40.118Z,16.8333333333
2018-09-02T00:42:52.523Z,16.8333333333
2018-09-02T00:43:04.924Z,16.8888888889
2018-09-02T00:43:17.330Z,16.8888888889
2018-09-02T00:43:29.738Z,16.8333333333
2018-09-02T00:43:42.157Z,16.8888888889
2018-09-02T00:43:54.551Z,16.8333333333
2018-09-02T00:44:06.965Z,16.8333333333
2018-09-02T00:44:19.360Z,16.8888888889
2018-09-02T00:44:31.767Z,16.8333333333
2018-09-02T00:44:44.213Z,16.8333333333
2018-09-02T00:44:56.629Z,16.8333333333
2018-09-02T00:45:09.028Z,16.8333333333
2018-09-02T00:45:21.431Z,16.8333333333
2018-09-02T00:45:33.811Z,16.8333333333
2018-09-02T00:45:46.212Z,16.8333333333
2018-09-02T00:45:58.608Z,16.8333333333
2018-09-02T00:46:11.001Z,16.8888888889
2018-09-02T00:46:23.434Z,16.8333333333
2018-09-02T00:46:35.850Z,16.8333333333
2018-09-02T00:46:48.266Z,16.8333333333
2018-09-02T00:47:00.670Z,16.8333333333
2018-09-02T00:47:13.118Z,16.8333333333
2018-09-02T00:47:25.537Z,16.8333333333
2018-09-02T00:47:37.961Z,16.8333333333
2018-09-02T00:47:50.377Z,16.8333333333
2018-09-02T00:48:02.821Z,16.8333333333
2018-09-02T00:48:15.242Z,16.8333333333
2018-09-02T00:48:27.637Z,16.8333333333
2018-09-02T00:48:40.043Z,16.8333333333
2018-09-02T00:48:52.451Z,16.8333333333
2018-09-02T00:49:04.840Z,16.8333333333
2018-09-02T00:49:17.344Z,16.8888888889
2018-09-02T00:49:29.766Z,16.8333333333
2018-09-02T00:49:42.192Z,16.8333333333
2018-09-02T00:49:54.645Z,16.8333333333
2018-09-02T00:50:07.069Z,16.8333333333
2018-09-02T00:50:19.467Z,16.8333333333
2018-09-02T00:50:31.863Z,16.8888888889
2018-09-02T00:50:44.329Z,16.8333333333
2018-09-02T00:50:56.731Z,16.8333333333
2018-09-02T00:51:09.132Z,16.8333333333
2018-09-02T00:51:21.569Z,16.8333333333
2018-09-02T00:51:33.993Z,16.8333333333
2018-09-02T00:51:46.401Z,16.8333333333
2018-09-02T00:51:58.821Z,16.8333333333
2018-09-02T00:52:11.224Z,16.8333333333
2018-09-02T00:52:23.622Z,16.8333333333
2018-09-02T00:52:36.018Z,16.8333333333
2018-09-02T00:52:48.425Z,16.8333333333
2018-09-02T00:53:00.827Z,16.8333333333
2018-09-02T00:53:13.454Z,16.8333333333
2018-09-02T00:53:25.869Z,16.8333333333
2018-09-02T00:53:38.278Z,16.8333333333
2018-09-02T00:53:50.693Z,16.8333333333
2018-09-02T00:54:03.162Z,16.8333333333
2018-09-02T00:54:15.574Z,16.8333333333
2018-09-02T00:54:27.988Z,16.8333333333
2018-09-02T00:54:40.381Z,16.8333333333
2018-09-02T00:54:52.809Z,16.8333333333
2018-09-02T00:55:05.221Z,16.7777777778
2018-09-02T00:55:17.629Z,16.7777777778
2018-09-02T00:55:30.017Z,16.8333333333
2018-09-02T00:55:42.439Z,16.7777777778
2018-09-02T00:55:54.854Z,16.8333333333
2018-09-02T00:56:07.254Z,16.7777777778
2018-09-02T00:56:19.661Z,16.7777777778
2018-09-02T00:56:32.056Z,16.8333333333
2018-09-02T00:56:44.597Z,16.7777777778
2018-09-02T00:56:57.335Z,16.7777777778
2018-09-02T00:57:09.765Z,16.7777777778
2018-09-02T00:57:22.197Z,16.7777777778
2018-09-02T00:57:34.618Z,16.7777777778
2018-09-02T00:57:47.035Z,16.7777777778
2018-09-02T00:57:59.457Z,16.7777777778
2018-09-02T00:58:11.867Z,16.7777777778
2018-09-02T00:58:24.304Z,16.7777777778
2018-09-02T00:58:36.759Z,16.7777777778
2018-09-02T00:58:49.196Z,16.7777777778
2018-09-02T00:59:01.658Z,16.7777777778
2018-09-02T00:59:14.089Z,16.7777777778
2018-09-02T00:59:26.497Z,16.7777777778
2018-09-02T00:59:38.923Z,16.7777777778
2018-09-02T00:59:51.339Z,16.7222222222
2018-09-02T01:00:03.751Z,16.7777777778
2018-09-02T01:00:16.199Z,16.7777777778
2018-09-02T01:00:28.640Z,16.7777777778
2018-09-02T01:00:41.097Z,16.7222222222
2018-09-02T01:00:53.527Z,16.7222222222
2018-09-02T01:01:05.970Z,16.7222222222
2018-09-02T01:01:18.587Z,16.7222222222
2018-09-02T01:01:31.011Z,16.7222222222
2018-09-02T01:01:43.442Z,16.7222222222
2018-09-02T01:01:55.862Z,16.7222222222
2018-09-02T01:02:08.279Z,16.7222222222
2018-09-02T01:02:20.787Z,16.7222222222
2018-09-02T01:02:33.214Z,16.7222222222
2018-09-02T01:02:45.660Z,16.7222222222
2018-09-02T01:02:58.182Z,16.7222222222
2018-09-02T01:03:10.594Z,16.7222222222
2018-09-02T01:03:22.992Z,16.7222222222
2018-09-02T01:03:35.395Z,16.7222222222
2018-09-02T01:03:47.971Z,16.7222222222
2018-09-02T01:04:00.388Z,16.7222222222
2018-09-02T01:04:12.803Z,16.7222222222
2018-09-02T01:04:25.224Z,16.7222222222
2018-09-02T01:04:37.636Z,16.6666666667
2018-09-02T01:04:50.057Z,16.7222222222
2018-09-02T01:05:02.474Z,16.6666666667
2018-09-02T01:05:14.883Z,16.7222222222
2018-09-02T01:05:27.291Z,16.6666666667
2018-09-02T01:05:39.704Z,16.6666666667
2018-09-02T01:05:52.126Z,16.6666666667
2018-09-02T01:06:04.524Z,16.6666666667
2018-09-02T01:06:16.993Z,16.7222222222
2018-09-02T01:06:29.393Z,16.6666666667
2018-09-02T01:06:41.794Z,16.6666666667
2018-09-02T01:06:54.269Z,16.6666666667
2018-09-02T01:07:06.656Z,16.6666666667
2018-09-02T01:07:19.079Z,16.6666666667
2018-09-02T01:07:31.512Z,16.6666666667
2018-09-02T01:07:43.931Z,16.6666666667
2018-09-02T01:07:56.335Z,16.6666666667
2018-09-02T01:08:08.728Z,16.6666666667
2018-09-02T01:08:21.124Z,16.6666666667
2018-09-02T01:08:33.518Z,16.6111111111
2018-09-02T01:08:45.901Z,16.6111111111
2018-09-02T01:08:58.354Z,16.6111111111
2018-09-02T01:09:10.819Z,16.6111111111
2018-09-02T01:09:23.223Z,16.6111111111
2018-09-02T01:09:35.656Z,16.6111111111
2018-09-02T01:09:48.065Z,16.6111111111
2018-09-02T01:10:00.486Z,16.6111111111
2018-09-02T01:10:12.914Z,16.6111111111
2018-09-02T01:10:25.380Z,16.6111111111
2018-09-02T01:10:37.804Z,16.6111111111
2018-09-02T01:10:50.208Z,16.6111111111
2018-09-02T01:11:02.604Z,16.6111111111
2018-09-02T01:11:15.014Z,16.6111111111
2018-09-02T01:11:27.417Z,16.6111111111
2018-09-02T01:11:39.807Z,16.5555555556
2018-09-02T01:11:52.387Z,16.5555555556
2018-09-02T01:12:04.791Z,16.5555555556
2018-09-02T01:12:17.203Z,16.6111111111
2018-09-02T01:12:29.607Z,16.5555555556
2018-09-02T01:12:42.170Z,16.5555555556
2018-09-02T01:12:54.589Z,16.5555555556
2018-09-02T01:13:07.008Z,16.5555555556
2018-09-02T01:13:19.413Z,16.5555555556
2018-09-02T01:13:31.831Z,16.5555555556
2018-09-02T01:13:44.240Z,16.5555555556
2018-09-02T01:13:56.648Z,16.5555555556
2018-09-02T01:14:09.058Z,16.5555555556
2018-09-02T01:14:21.468Z,16.5555555556
2018-09-02T01:14:33.974Z,16.5555555556
2018-09-02T01:14:46.399Z,16.5
2018-09-02T01:14:58.844Z,16.5
2018-09-02T01:15:11.230Z,16.5
2018-09-02T01:15:23.638Z,16.5
2018-09-02T01:15:36.042Z,16.5
2018-09-02T01:15:48.436Z,16.5
2018-09-02T01:16:00.845Z,16.5
2018-09-02T01:16:13.248Z,16.5
2018-09-02T01:16:25.656Z,16.5
2018-09-02T01:16:38.076Z,16.5
2018-09-02T01:16:50.488Z,16.5
2018-09-02T01:17:02.901Z,16.5
2018-09-02T01:17:15.322Z,16.5
2018-09-02T01:17:27.724Z,16.5
2018-09-02T01:17:40.160Z,16.5
2018-09-02T01:17:52.671Z,16.5
2018-09-02T01:18:05.096Z,16.4444444444
2018-09-02T01:18:17.504Z,16.4444444444
2018-09-02T01:18:29.924Z,16.4444444444
2018-09-02T01:18:42.324Z,16.4444444444
2018-09-02T01:18:54.746Z,16.4444444444
2018-09-02T01:19:07.162Z,16.4444444444
2018-09-02T01:19:19.585Z,16.4444444444
2018-09-02T01:19:31.991Z,16.4444444444
2018-09-02T01:19:44.502Z,16.4444444444
2018-09-02T01:19:56.929Z,16.4444444444
2018-09-02T01:20:09.375Z,16.4444444444
2018-09-02T01:20:21.815Z,16.4444444444
2018-09-02T01:20:34.224Z,16.5
2018-09-02T01:20:46.644Z,16.4444444444
2018-09-02T01:20:59.041Z,16.4444444444
2018-09-02T01:21:11.650Z,16.5
2018-09-02T01:21:24.061Z,16.4444444444
2018-09-02T01:21:36.472Z,16.4444444444
2018-09-02T01:21:48.889Z,16.4444444444
2018-09-02T01:22:01.306Z,16.4444444444
2018-09-02T01:22:13.704Z,16.4444444444
2018-09-02T01:22:26.142Z,16.4444444444
2018-09-02T01:22:38.589Z,16.4444444444
2018-09-02T01:22:51.167Z,16.4444444444
2018-09-02T01:23:04.379Z,16.4444444444
2018-09-02T01:23:18.117Z,16.4444444444
2018-09-02T01:23:30.591Z,16.4444444444
2018-09-02T01:23:43.346Z,16.4444444444
2018-09-02T01:23:55.743Z,16.4444444444
2018-09-02T01:24:08.156Z,16.4444444444
2018-09-02T01:24:20.578Z,16.4444444444
2018-09-02T01:24:32.999Z,16.4444444444
2018-09-02T01:24:45.392Z,16.4444444444
2018-09-02T01:24:57.803Z,16.4444444444
2018-09-02T01:25:10.198Z,16.4444444444
2018-09-02T01:25:22.603Z,16.3888888889
2018-09-02T01:25:35.333Z,16.3888888889
2018-09-02T01:25:47.755Z,16.3888888889
2018-09-02T01:26:00.190Z,16.4444444444
2018-09-02T01:26:12.594Z,16.3888888889
2018-09-02T01:26:25.026Z,16.4444444444
2018-09-02T01:26:37.427Z,16.3888888889
2018-09-02T01:26:49.841Z,16.3888888889
2018-09-02T01:27:02.317Z,16.3888888889
2018-09-02T01:27:14.733Z,16.3888888889
2018-09-02T01:27:27.150Z,16.3888888889
2018-09-02T01:27:39.612Z,16.3888888889
2018-09-02T01:27:51.990Z,16.3888888889
2018-09-02T01:28:04.392Z,16.3888888889
2018-09-02T01:28:16.800Z,16.3333333333
2018-09-02T01:28:29.204Z,16.3333333333
2018-09-02T01:28:41.665Z,16.3888888889
2018-09-02T01:28:54.083Z,16.3333333333
2018-09-02T01:29:06.483Z,16.3333333333
2018-09-02T01:29:18.944Z,16.3333333333
2018-09-02T01:29:31.420Z,16.3333333333
2018-09-02T01:29:43.831Z,16.3333333333
2018-09-02T01:29:56.235Z,16.3333333333
2018-09-02T01:30:08.656Z,16.3333333333
2018-09-02T01:30:21.096Z,16.3333333333
2018-09-02T01:30:33.525Z,16.3333333333
2018-09-02T01:30:45.932Z,16.3333333333
2018-09-02T01:30:58.389Z,16.3333333333
2018-09-02T01:31:10.789Z,16.3333333333
2018-09-02T01:31:23.202Z,16.3333333333
2018-09-02T01:31:35.642Z,16.3333333333
2018-09-02T01:31:48.254Z,16.3333333333
2018-09-02T01:32:00.671Z,16.2777777778
2018-09-02T01:32:13.067Z,16.3333333333
2018-09-02T01:32:25.649Z,16.2777777778
2018-09-02T01:32:38.074Z,16.2777777778
2018-09-02T01:32:50.467Z,16.2777777778
2018-09-02T01:33:02.883Z,16.2777777778
2018-09-02T01:33:15.299Z,16.2777777778
2018-09-02T01:33:27.737Z,16.2777777778
2018-09-02T01:33:40.168Z,16.2777777778
2018-09-02T01:33:52.588Z,16.2777777778
2018-09-02T01:34:05.088Z,16.2777777778
2018-09-02T01:34:17.508Z,16.2777777778
2018-09-02T01:34:29.948Z,16.2777777778
2018-09-02T01:34:42.373Z,16.2777777778
2018-09-02T01:34:54.785Z,16.2777777778
2018-09-02T01:35:07.197Z,16.2777777778
2018-09-02T01:35:19.633Z,16.2777777778
2018-09-02T01:35:32.078Z,16.2777777778
2018-09-02T01:35:44.516Z,16.2222222222
2018-09-02T01:35:56.933Z,16.2222222222
2018-09-02T01:36:09.479Z,16.2222222222
2018-09-02T01:36:21.892Z,16.2222222222
2018-09-02T01:36:34.363Z,16.2222222222
2018-09-02T01:36:46.794Z,16.2777777778
2018-09-02T01:36:59.197Z,16.2222222222
2018-09-02T01:37:11.634Z,16.2222222222
2018-09-02T01:37:24.039Z,16.2222222222
2018-09-02T01:37:36.437Z,16.2222222222
2018-09-02T01:37:48.841Z,16.2222222222
2018-09-02T01:38:01.254Z,16.2222222222
2018-09-02T01:38:13.666Z,16.2222222222
2018-09-02T01:38:26.089Z,16.2222222222
2018-09-02T01:38:38.492Z,16.1666666667
2018-09-02T01:38:50.893Z,16.2222222222
2018-09-02T01:39:03.285Z,16.2222222222
2018-09-02T01:39:15.723Z,16.2222222222
2018-09-02T01:39:28.164Z,16.1666666667
2018-09-02T01:39:40.556Z,16.2222222222
2018-09-02T01:39:52.954Z,16.2222222222
2018-09-02T01:40:05.366Z,16.1666666667
2018-09-02T01:40:17.790Z,16.1666666667
2018-09-02T01:40:30.188Z,16.1666666667
2018-09-02T01:40:42.594Z,16.2222222222
2018-09-02T01:40:55.007Z,16.1666666667
2018-09-02T01:41:07.402Z,16.1666666667
2018-09-02T01:41:19.986Z,16.2222222222
2018-09-02T01:41:32.386Z,16.1666666667
2018-09-02T01:41:44.804Z,16.1666666667
2018-09-02T01:41:57.215Z,16.1666666667
2018-09-02T01:42:09.822Z,16.1666666667
2018-09-02T01:42:22.241Z,16.1666666667
2018-09-02T01:42:34.660Z,16.1666666667
2018-09-02T01:42:47.101Z,16.1666666667
2018-09-02T01:42:59.552Z,16.1666666667
2018-09-02T01:43:11.983Z,16.1666666667
2018-09-02T01:43:24.403Z,16.1666666667
2018-09-02T01:43:36.848Z,16.1666666667
2018-09-02T01:43:49.252Z,16.1111111111
2018-09-02T01:44:01.671Z,16.1111111111
2018-09-02T01:44:14.104Z,16.1666666667
2018-09-02T01:44:26.553Z,16.1111111111
2018-09-02T01:44:38.986Z,16.1111111111
2018-09-02T01:44:51.399Z,16.1111111111
2018-09-02T01:45:03.816Z,16.1666666667
2018-09-02T01:45:16.315Z,16.1111111111
2018-09-02T01:45:28.727Z,16.1666666667
2018-09-02T01:45:41.200Z,16.1111111111
2018-09-02T01:45:53.636Z,16.1111111111
2018-09-02T01:46:06.044Z,16.1111111111
2018-09-02T01:46:18.474Z,16.1666666667
2018-09-02T01:46:30.904Z,16.1111111111
2018-09-02T01:46:43.305Z,16.1111111111
2018-09-02T01:46:55.769Z,16.1666666667
2018-09-02T01:47:08.165Z,16.1111111111
2018-09-02T01:47:20.577Z,16.1111111111
2018-09-02T01:47:32.985Z,16.0555555556
2018-09-02T01:47:45.393Z,16.1111111111
2018-09-02T01:47:57.806Z,16.0555555556
2018-09-02T01:48:10.234Z,16.1111111111
2018-09-02T01:48:22.639Z,16.0555555556
2018-09-02T01:48:35.066Z,16.1111111111
2018-09-02T01:48:47.541Z,16.1111111111
2018-09-02T01:48:59.945Z,16.1111111111
2018-09-02T01:49:12.762Z,16.1111111111
2018-09-02T01:49:25.157Z,16.0555555556
2018-09-02T01:49:37.565Z,16.0555555556
2018-09-02T01:49:49.988Z,16.0555555556
2018-09-02T01:50:02.403Z,16.0555555556
2018-09-02T01:50:14.827Z,16.0555555556
2018-09-02T01:50:27.242Z,16.0555555556
2018-09-02T01:50:39.628Z,16.0555555556
2018-09-02T01:50:52.032Z,16.0555555556
2018-09-02T01:51:04.426Z,16.0555555556
2018-09-02T01:51:16.835Z,16.0555555556
2018-09-02T01:51:29.245Z,16.0555555556
2018-09-02T01:51:41.657Z,16.0555555556
2018-09-02T01:51:54.068Z,16.0555555556
2018-09-02T01:52:06.506Z,16.0555555556
2018-09-02T01:52:18.903Z,16.0555555556
2018-09-02T01:52:31.307Z,16.0555555556
2018-09-02T01:52:43.707Z,16.0555555556
2018-09-02T01:52:56.109Z,16.0555555556
2018-09-02T01:53:08.523Z,16.0555555556
2018-09-02T01:53:20.929Z,16.0555555556
2018-09-02T01:53:33.333Z,16
2018-09-02T01:53:45.752Z,16.0555555556
2018-09-02T01:53:58.154Z,16
2018-09-02T01:54:10.587Z,16
2018-09-02T01:54:22.972Z,16
2018-09-02T01:54:35.401Z,16.0555555556
2018-09-02T01:54:47.812Z,16.0555555556
2018-09-02T01:55:00.215Z,16.0555555556
2018-09-02T01:55:12.619Z,16
2018-09-02T01:55:25.020Z,16
2018-09-02T01:55:37.420Z,16
2018-09-02T01:55:49.805Z,16
2018-09-02T01:56:02.203Z,16.0555555556
2018-09-02T01:56:14.602Z,16
2018-09-02T01:56:27.056Z,16
2018-09-02T01:56:39.491Z,16
2018-09-02T01:56:52.188Z,16.0555555556
2018-09-02T01:57:04.613Z,16
2018-09-02T01:57:17.016Z,16.0555555556
2018-09-02T01:57:29.422Z,16
2018-09-02T01:57:41.882Z,16.0555555556
2018-09-02T01:57:54.291Z,16
2018-09-02T01:58:06.711Z,16
2018-09-02T01:58:19.109Z,16
2018-09-02T01:58:31.508Z,16
2018-09-02T01:58:43.910Z,16
2018-09-02T01:58:56.326Z,16
2018-09-02T01:59:08.735Z,16
2018-09-02T01:59:21.154Z,16
2018-09-02T01:59:33.574Z,16
2018-09-02T01:59:45.983Z,16
2018-09-02T01:59:58.407Z,16
2018-09-02T02:00:10.811Z,16
2018-09-02T02:00:23.234Z,16
2018-09-02T02:00:35.653Z,16
2018-09-02T02:00:48.061Z,16
2018-09-02T02:01:00.500Z,16
2018-09-02T02:01:13.057Z,16
2018-09-02T02:01:25.488Z,16
2018-09-02T02:01:37.972Z,16
2018-09-02T02:01:50.401Z,16
2018-09-02T02:02:02.821Z,16
2018-09-02T02:02:15.245Z,16
2018-09-02T02:02:27.669Z,15.9444444444
2018-09-02T02:02:40.077Z,16
2018-09-02T02:02:52.584Z,16
2018-09-02T02:03:05.013Z,16
2018-09-02T02:03:17.431Z,16
2018-09-02T02:03:29.831Z,16
2018-09-02T02:03:42.240Z,15.9444444444
2018-09-02T02:03:54.669Z,15.9444444444
2018-09-02T02:04:07.075Z,15.9444444444
2018-09-02T02:04:19.482Z,15.9444444444
2018-09-02T02:04:31.889Z,15.9444444444
2018-09-02T02:04:44.297Z,15.9444444444
2018-09-02T02:04:56.738Z,15.9444444444
2018-09-02T02:05:09.170Z,15.9444444444
2018-09-02T02:05:21.576Z,15.9444444444
2018-09-02T02:05:33.981Z,15.9444444444
2018-09-02T02:05:46.395Z,15.9444444444
2018-09-02T02:05:58.810Z,15.9444444444
2018-09-02T02:06:11.219Z,15.9444444444
2018-09-02T02:06:23.658Z,15.9444444444
2018-09-02T02:06:36.050Z,15.9444444444
2018-09-02T02:06:48.448Z,15.9444444444
2018-09-02T02:07:00.905Z,15.9444444444
2018-09-02T02:07:13.305Z,15.9444444444
2018-09-02T02:07:25.704Z,15.9444444444
2018-09-02T02:07:38.129Z,15.9444444444
2018-09-02T02:07:50.525Z,15.9444444444
2018-09-02T02:08:02.986Z,15.9444444444
2018-09-02T02:08:15.405Z,15.9444444444
2018-09-02T02:08:27.812Z,15.9444444444
2018-09-02T02:08:40.315Z,15.9444444444
2018-09-02T02:08:52.718Z,15.9444444444
2018-09-02T02:09:05.140Z,15.9444444444
2018-09-02T02:09:17.562Z,15.9444444444
2018-09-02T02:09:29.961Z,15.9444444444
2018-09-02T02:09:42.375Z,15.9444444444
2018-09-02T02:09:54.794Z,15.9444444444
2018-09-02T02:10:07.187Z,15.9444444444
2018-09-02T02:10:19.599Z,15.9444444444
2018-09-02T02:10:32.000Z,15.9444444444
2018-09-02T02:10:44.401Z,15.9444444444
2018-09-02T02:10:56.821Z,15.9444444444
2018-09-02T02:11:09.224Z,15.9444444444
2018-09-02T02:11:21.638Z,15.9444444444
2018-09-02T02:11:34.069Z,15.9444444444
2018-09-02T02:11:46.647Z,15.9444444444
2018-09-02T02:11:59.051Z,15.9444444444
2018-09-02T02:12:11.455Z,15.9444444444
2018-09-02T02:12:23.863Z,15.9444444444